sensor_id;sensor_type;location;lat;lon;timestamp;P1;durP1;ratioP1;P2;durP2;ratioP2
18146;SDS011;9199;48.832;9.182;2023-06-10T00:02:23;10.87;;;7.57;;
18146;SDS011;9199;48.832;9.182;2023-06-10T00:04:50;11.13;;;7.43;;
18146;SDS011;9199;48.832;9.182;2023-06-10T00:07:17;10.80;;;7.70;;
18146;SDS011;9199;48.832;9.182;2023-06-10T00:09:44;9.65;;;7.25;;
18146;SDS011;9199;48.832;9.182;2023-06-10T00:12:11;9.88;;;7.40;;
18146;SDS011;9199;48.832;9.182;2023-06-10T00:14:38;11.80;;;7.40;;
18146;SDS011;9199;48.832;9.182;2023-06-10T00:17:06;8.48;;;6.95;;
18146;SDS011;9199;48.832;9.182;2023-06-10T00:19:36;13.75;;;7.95;;
18146;SDS011;9199;48.832;9.182;2023-06-10T00:22:05;11.75;;;8.80;;
18146;SDS011;9199;48.832;9.182;2023-06-10T00:24:31;11.45;;;8.07;;
18146;SDS011;9199;48.832;9.182;2023-06-10T00:26:58;10.03;;;8.20;;
18146;SDS011;9199;48.832;9.182;2023-06-10T00:29:25;11.68;;;8.20;;
18146;SDS011;9199;48.832;9.182;2023-06-10T00:31:51;12.40;;;8.40;;
18146;SDS011;9199;48.832;9.182;2023-06-10T00:34:22;10.73;;;7.90;;
18146;SDS011;9199;48.832;9.182;2023-06-10T00:36:51;13.35;;;8.07;;
18146;SDS011;9199;48.832;9.182;2023-06-10T00:39:17;10.70;;;8.10;;
18146;SDS011;9199;48.832;9.182;2023-06-10T00:41:44;10.35;;;7.95;;
18146;SDS011;9199;48.832;9.182;2023-06-10T00:47:33;10.75;;;8.85;;
18146;SDS011;9199;48.832;9.182;2023-06-10T00:50:00;12.45;;;8.45;;
18146;SDS011;9199;48.832;9.182;2023-06-10T00:52:29;11.60;;;8.30;;
18146;SDS011;9199;48.832;9.182;2023-06-10T00:54:56;10.20;;;8.05;;
18146;SDS011;9199;48.832;9.182;2023-06-10T00:57:24;11.63;;;7.97;;
18146;SDS011;9199;48.832;9.182;2023-06-10T00:59:51;12.13;;;8.02;;
18146;SDS011;9199;48.832;9.182;2023-06-10T01:02:18;10.57;;;8.18;;
18146;SDS011;9199;48.832;9.182;2023-06-10T01:04:45;10.73;;;7.63;;
18146;SDS011;9199;48.832;9.182;2023-06-10T01:07:14;10.95;;;8.48;;
18146;SDS011;9199;48.832;9.182;2023-06-10T01:09:49;12.27;;;8.32;;
18146;SDS011;9199;48.832;9.182;2023-06-10T01:12:24;8.73;;;7.50;;
18146;SDS011;9199;48.832;9.182;2023-06-10T01:14:55;11.27;;;8.25;;
18146;SDS011;9199;48.832;9.182;2023-06-10T01:17:23;12.17;;;9.03;;
18146;SDS011;9199;48.832;9.182;2023-06-10T01:19:55;9.82;;;8.25;;
18146;SDS011;9199;48.832;9.182;2023-06-10T01:22:24;12.00;;;8.48;;
18146;SDS011;9199;48.832;9.182;2023-06-10T01:24:53;11.40;;;8.77;;
18146;SDS011;9199;48.832;9.182;2023-06-10T01:27:23;13.05;;;10.15;;
18146;SDS011;9199;48.832;9.182;2023-06-10T01:29:54;14.60;;;9.77;;
18146;SDS011;9199;48.832;9.182;2023-06-10T01:32:27;12.30;;;9.35;;
18146;SDS011;9199;48.832;9.182;2023-06-10T01:34:59;12.68;;;9.63;;
18146;SDS011;9199;48.832;9.182;2023-06-10T01:37:29;12.18;;;9.02;;
18146;SDS011;9199;48.832;9.182;2023-06-10T01:39:57;12.02;;;9.18;;
18146;SDS011;9199;48.832;9.182;2023-06-10T01:42:25;11.23;;;9.33;;
18146;SDS011;9199;48.832;9.182;2023-06-10T01:44:52;10.60;;;8.38;;
18146;SDS011;9199;48.832;9.182;2023-06-10T01:47:19;11.70;;;8.07;;
18146;SDS011;9199;48.832;9.182;2023-06-10T01:49:46;11.18;;;8.38;;
18146;SDS011;9199;48.832;9.182;2023-06-10T01:52:12;11.10;;;8.35;;
18146;SDS011;9199;48.832;9.182;2023-06-10T01:54:41;11.97;;;8.47;;
18146;SDS011;9199;48.832;9.182;2023-06-10T01:57:07;11.63;;;8.38;;
18146;SDS011;9199;48.832;9.182;2023-06-10T01:59:34;10.75;;;8.20;;
18146;SDS011;9199;48.832;9.182;2023-06-10T02:02:03;12.00;;;8.40;;
18146;SDS011;9199;48.832;9.182;2023-06-10T02:04:30;13.00;;;8.57;;
18146;SDS011;9199;48.832;9.182;2023-06-10T02:06:57;11.80;;;8.60;;
18146;SDS011;9199;48.832;9.182;2023-06-10T02:09:23;11.13;;;8.43;;
18146;SDS011;9199;48.832;9.182;2023-06-10T02:11:52;12.32;;;8.60;;
18146;SDS011;9199;48.832;9.182;2023-06-10T02:14:18;10.65;;;8.40;;
18146;SDS011;9199;48.832;9.182;2023-06-10T02:16:45;11.38;;;9.07;;
18146;SDS011;9199;48.832;9.182;2023-06-10T02:19:12;11.17;;;8.47;;
18146;SDS011;9199;48.832;9.182;2023-06-10T02:21:39;11.45;;;9.02;;
18146;SDS011;9199;48.832;9.182;2023-06-10T02:24:06;11.00;;;8.93;;
18146;SDS011;9199;48.832;9.182;2023-06-10T02:26:33;9.80;;;8.70;;
18146;SDS011;9199;48.832;9.182;2023-06-10T02:29:01;11.65;;;8.85;;
18146;SDS011;9199;48.832;9.182;2023-06-10T02:31:28;12.13;;;8.60;;
18146;SDS011;9199;48.832;9.182;2023-06-10T02:33:55;10.73;;;8.95;;
18146;SDS011;9199;48.832;9.182;2023-06-10T02:36:21;12.20;;;8.95;;
18146;SDS011;9199;48.832;9.182;2023-06-10T02:38:49;11.25;;;8.43;;
18146;SDS011;9199;48.832;9.182;2023-06-10T02:41:15;10.98;;;8.73;;
18146;SDS011;9199;48.832;9.182;2023-06-10T02:43:42;12.37;;;8.57;;
18146;SDS011;9199;48.832;9.182;2023-06-10T02:46:10;11.15;;;8.25;;
18146;SDS011;9199;48.832;9.182;2023-06-10T02:48:40;10.52;;;8.35;;
18146;SDS011;9199;48.832;9.182;2023-06-10T02:51:08;11.48;;;8.77;;
18146;SDS011;9199;48.832;9.182;2023-06-10T02:53:34;10.48;;;8.48;;
18146;SDS011;9199;48.832;9.182;2023-06-10T02:56:01;11.73;;;8.70;;
18146;SDS011;9199;48.832;9.182;2023-06-10T02:58:28;10.57;;;8.32;;
18146;SDS011;9199;48.832;9.182;2023-06-10T03:00:55;11.95;;;9.00;;
18146;SDS011;9199;48.832;9.182;2023-06-10T03:03:24;11.73;;;8.55;;
18146;SDS011;9199;48.832;9.182;2023-06-10T03:05:52;10.05;;;8.57;;
18146;SDS011;9199;48.832;9.182;2023-06-10T03:08:19;11.47;;;8.80;;
18146;SDS011;9199;48.832;9.182;2023-06-10T03:10:45;11.50;;;8.60;;
18146;SDS011;9199;48.832;9.182;2023-06-10T03:13:12;11.65;;;8.75;;
18146;SDS011;9199;48.832;9.182;2023-06-10T03:15:39;12.18;;;8.52;;
18146;SDS011;9199;48.832;9.182;2023-06-10T03:18:06;10.30;;;8.15;;
18146;SDS011;9199;48.832;9.182;2023-06-10T03:20:34;11.30;;;8.30;;
18146;SDS011;9199;48.832;9.182;2023-06-10T03:23:03;9.95;;;7.97;;
18146;SDS011;9199;48.832;9.182;2023-06-10T03:25:31;12.43;;;8.05;;
18146;SDS011;9199;48.832;9.182;2023-06-10T03:27:58;11.77;;;8.77;;
18146;SDS011;9199;48.832;9.182;2023-06-10T03:30:25;9.18;;;7.40;;
18146;SDS011;9199;48.832;9.182;2023-06-10T03:32:51;9.93;;;8.13;;
18146;SDS011;9199;48.832;9.182;2023-06-10T03:35:18;10.55;;;8.30;;
18146;SDS011;9199;48.832;9.182;2023-06-10T03:37:46;10.85;;;7.70;;
18146;SDS011;9199;48.832;9.182;2023-06-10T03:40:13;11.13;;;7.93;;
18146;SDS011;9199;48.832;9.182;2023-06-10T03:42:40;11.15;;;8.32;;
18146;SDS011;9199;48.832;9.182;2023-06-10T03:45:09;10.23;;;8.10;;
18146;SDS011;9199;48.832;9.182;2023-06-10T03:47:36;9.88;;;7.75;;
18146;SDS011;9199;48.832;9.182;2023-06-10T03:50:05;10.73;;;7.80;;
18146;SDS011;9199;48.832;9.182;2023-06-10T03:52:34;10.75;;;7.72;;
18146;SDS011;9199;48.832;9.182;2023-06-10T03:55:02;9.93;;;7.80;;
18146;SDS011;9199;48.832;9.182;2023-06-10T03:57:30;10.03;;;7.73;;
18146;SDS011;9199;48.832;9.182;2023-06-10T03:59:56;10.18;;;7.65;;
18146;SDS011;9199;48.832;9.182;2023-06-10T04:02:23;10.93;;;7.45;;
18146;SDS011;9199;48.832;9.182;2023-06-10T04:04:50;9.80;;;7.63;;
18146;SDS011;9199;48.832;9.182;2023-06-10T04:07:17;10.95;;;7.72;;
18146;SDS011;9199;48.832;9.182;2023-06-10T04:09:45;11.13;;;7.33;;
18146;SDS011;9199;48.832;9.182;2023-06-10T04:12:13;11.20;;;7.80;;
18146;SDS011;9199;48.832;9.182;2023-06-10T04:14:41;9.32;;;7.18;;
18146;SDS011;9199;48.832;9.182;2023-06-10T04:17:08;10.27;;;7.40;;
18146;SDS011;9199;48.832;9.182;2023-06-10T04:19:35;9.75;;;7.22;;
18146;SDS011;9199;48.832;9.182;2023-06-10T04:22:02;10.50;;;7.23;;
18146;SDS011;9199;48.832;9.182;2023-06-10T04:24:30;9.98;;;7.22;;
18146;SDS011;9199;48.832;9.182;2023-06-10T04:26:57;10.93;;;7.13;;
18146;SDS011;9199;48.832;9.182;2023-06-10T04:29:25;9.35;;;7.22;;
18146;SDS011;9199;48.832;9.182;2023-06-10T04:31:51;9.63;;;7.50;;
18146;SDS011;9199;48.832;9.182;2023-06-10T04:34:18;9.57;;;7.23;;
18146;SDS011;9199;48.832;9.182;2023-06-10T04:36:45;10.88;;;7.38;;
18146;SDS011;9199;48.832;9.182;2023-06-10T04:39:12;10.57;;;7.57;;
18146;SDS011;9199;48.832;9.182;2023-06-10T04:41:38;9.45;;;7.05;;
18146;SDS011;9199;48.832;9.182;2023-06-10T04:44:05;9.30;;;7.25;;
18146;SDS011;9199;48.832;9.182;2023-06-10T04:46:33;9.47;;;7.43;;
18146;SDS011;9199;48.832;9.182;2023-06-10T04:49:00;10.48;;;7.28;;
18146;SDS011;9199;48.832;9.182;2023-06-10T04:51:27;10.15;;;7.03;;
18146;SDS011;9199;48.832;9.182;2023-06-10T04:53:54;11.23;;;7.40;;
18146;SDS011;9199;48.832;9.182;2023-06-10T04:56:20;9.25;;;6.95;;
18146;SDS011;9199;48.832;9.182;2023-06-10T04:58:47;10.97;;;7.27;;
18146;SDS011;9199;48.832;9.182;2023-06-10T05:01:14;9.88;;;7.20;;
18146;SDS011;9199;48.832;9.182;2023-06-10T05:03:42;10.18;;;7.78;;
18146;SDS011;9199;48.832;9.182;2023-06-10T05:06:09;9.18;;;6.80;;
18146;SDS011;9199;48.832;9.182;2023-06-10T05:08:36;11.52;;;7.68;;
18146;SDS011;9199;48.832;9.182;2023-06-10T05:11:02;9.80;;;7.00;;
18146;SDS011;9199;48.832;9.182;2023-06-10T05:13:29;10.27;;;7.60;;
18146;SDS011;9199;48.832;9.182;2023-06-10T05:15:56;8.95;;;6.70;;
18146;SDS011;9199;48.832;9.182;2023-06-10T05:18:22;10.13;;;7.05;;
18146;SDS011;9199;48.832;9.182;2023-06-10T05:20:50;9.25;;;7.07;;
18146;SDS011;9199;48.832;9.182;2023-06-10T05:23:18;8.87;;;7.00;;
18146;SDS011;9199;48.832;9.182;2023-06-10T05:25:45;8.70;;;6.68;;
18146;SDS011;9199;48.832;9.182;2023-06-10T05:28:12;10.20;;;6.45;;
18146;SDS011;9199;48.832;9.182;2023-06-10T05:30:39;8.45;;;6.40;;
18146;SDS011;9199;48.832;9.182;2023-06-10T05:33:06;9.18;;;6.45;;
18146;SDS011;9199;48.832;9.182;2023-06-10T05:35:33;10.00;;;6.20;;
18146;SDS011;9199;48.832;9.182;2023-06-10T05:38:01;7.80;;;6.20;;
18146;SDS011;9199;48.832;9.182;2023-06-10T05:40:28;10.80;;;5.80;;
18146;SDS011;9199;48.832;9.182;2023-06-10T05:42:55;8.48;;;6.00;;
18146;SDS011;9199;48.832;9.182;2023-06-10T05:45:22;9.27;;;6.10;;
18146;SDS011;9199;48.832;9.182;2023-06-10T05:47:48;9.73;;;5.83;;
18146;SDS011;9199;48.832;9.182;2023-06-10T05:50:15;7.40;;;5.57;;
18146;SDS011;9199;48.832;9.182;2023-06-10T05:52:42;7.22;;;5.25;;
18146;SDS011;9199;48.832;9.182;2023-06-10T05:55:10;7.32;;;5.50;;
18146;SDS011;9199;48.832;9.182;2023-06-10T05:57:37;9.05;;;5.40;;
18146;SDS011;9199;48.832;9.182;2023-06-10T06:00:05;8.43;;;4.97;;
18146;SDS011;9199;48.832;9.182;2023-06-10T06:02:32;7.88;;;5.20;;
18146;SDS011;9199;48.832;9.182;2023-06-10T06:04:59;7.72;;;5.15;;
18146;SDS011;9199;48.832;9.182;2023-06-10T06:07:26;8.10;;;5.25;;
18146;SDS011;9199;48.832;9.182;2023-06-10T06:09:52;7.75;;;4.55;;
18146;SDS011;9199;48.832;9.182;2023-06-10T06:12:20;8.20;;;5.20;;
18146;SDS011;9199;48.832;9.182;2023-06-10T06:14:47;6.32;;;4.72;;
18146;SDS011;9199;48.832;9.182;2023-06-10T06:17:14;6.78;;;4.78;;
18146;SDS011;9199;48.832;9.182;2023-06-10T06:19:40;6.07;;;4.50;;
18146;SDS011;9199;48.832;9.182;2023-06-10T06:22:08;6.70;;;4.90;;
18146;SDS011;9199;48.832;9.182;2023-06-10T06:24:35;8.00;;;4.97;;
18146;SDS011;9199;48.832;9.182;2023-06-10T06:27:01;7.78;;;5.20;;
18146;SDS011;9199;48.832;9.182;2023-06-10T06:29:30;7.60;;;4.50;;
18146;SDS011;9199;48.832;9.182;2023-06-10T06:31:56;6.57;;;4.80;;
18146;SDS011;9199;48.832;9.182;2023-06-10T06:34:23;7.55;;;4.93;;
18146;SDS011;9199;48.832;9.182;2023-06-10T06:36:50;7.13;;;5.20;;
18146;SDS011;9199;48.832;9.182;2023-06-10T06:39:17;7.07;;;4.82;;
18146;SDS011;9199;48.832;9.182;2023-06-10T06:41:43;6.45;;;4.75;;
18146;SDS011;9199;48.832;9.182;2023-06-10T06:44:10;7.47;;;4.88;;
18146;SDS011;9199;48.832;9.182;2023-06-10T06:46:38;7.10;;;4.97;;
18146;SDS011;9199;48.832;9.182;2023-06-10T06:49:05;7.30;;;4.60;;
18146;SDS011;9199;48.832;9.182;2023-06-10T06:51:31;6.82;;;4.65;;
18146;SDS011;9199;48.832;9.182;2023-06-10T06:53:58;6.65;;;4.85;;
18146;SDS011;9199;48.832;9.182;2023-06-10T06:56:24;7.30;;;4.60;;
18146;SDS011;9199;48.832;9.182;2023-06-10T06:58:53;8.85;;;4.40;;
18146;SDS011;9199;48.832;9.182;2023-06-10T07:01:19;6.57;;;4.30;;
18146;SDS011;9199;48.832;9.182;2023-06-10T07:03:47;6.20;;;4.60;;
18146;SDS011;9199;48.832;9.182;2023-06-10T07:06:14;6.30;;;4.10;;
18146;SDS011;9199;48.832;9.182;2023-06-10T07:08:41;7.10;;;4.78;;
18146;SDS011;9199;48.832;9.182;2023-06-10T07:11:07;6.32;;;4.47;;
18146;SDS011;9199;48.832;9.182;2023-06-10T07:13:34;8.20;;;4.70;;
18146;SDS011;9199;48.832;9.182;2023-06-10T07:16:01;8.18;;;4.47;;
18146;SDS011;9199;48.832;9.182;2023-06-10T07:18:28;6.70;;;4.45;;
18146;SDS011;9199;48.832;9.182;2023-06-10T07:20:56;6.38;;;4.30;;
18146;SDS011;9199;48.832;9.182;2023-06-10T07:23:22;5.65;;;4.38;;
18146;SDS011;9199;48.832;9.182;2023-06-10T07:25:50;5.77;;;4.40;;
18146;SDS011;9199;48.832;9.182;2023-06-10T07:28:16;6.10;;;4.22;;
18146;SDS011;9199;48.832;9.182;2023-06-10T07:30:43;5.70;;;4.00;;
18146;SDS011;9199;48.832;9.182;2023-06-10T07:33:10;6.05;;;4.30;;
18146;SDS011;9199;48.832;9.182;2023-06-10T07:35:37;6.70;;;4.20;;
18146;SDS011;9199;48.832;9.182;2023-06-10T07:38:05;6.73;;;4.30;;
18146;SDS011;9199;48.832;9.182;2023-06-10T07:40:31;6.20;;;4.05;;
18146;SDS011;9199;48.832;9.182;2023-06-10T07:42:58;6.07;;;4.35;;
18146;SDS011;9199;48.832;9.182;2023-06-10T07:45:25;6.10;;;4.20;;
18146;SDS011;9199;48.832;9.182;2023-06-10T07:47:51;6.88;;;4.28;;
18146;SDS011;9199;48.832;9.182;2023-06-10T07:50:18;5.70;;;3.90;;
18146;SDS011;9199;48.832;9.182;2023-06-10T07:52:45;5.95;;;4.10;;
18146;SDS011;9199;48.832;9.182;2023-06-10T07:55:13;7.13;;;4.30;;
18146;SDS011;9199;48.832;9.182;2023-06-10T07:57:40;6.47;;;4.50;;
18146;SDS011;9199;48.832;9.182;2023-06-10T08:00:07;6.20;;;4.25;;
18146;SDS011;9199;48.832;9.182;2023-06-10T08:02:35;6.53;;;4.30;;
18146;SDS011;9199;48.832;9.182;2023-06-10T08:05:02;6.38;;;4.47;;
18146;SDS011;9199;48.832;9.182;2023-06-10T08:07:30;6.22;;;4.00;;
18146;SDS011;9199;48.832;9.182;2023-06-10T08:09:56;7.35;;;4.55;;
18146;SDS011;9199;48.832;9.182;2023-06-10T08:12:24;5.70;;;4.30;;
18146;SDS011;9199;48.832;9.182;2023-06-10T08:14:51;5.53;;;4.30;;
18146;SDS011;9199;48.832;9.182;2023-06-10T08:17:18;6.35;;;4.40;;
18146;SDS011;9199;48.832;9.182;2023-06-10T08:19:45;6.82;;;5.05;;
18146;SDS011;9199;48.832;9.182;2023-06-10T08:22:12;6.60;;;5.15;;
18146;SDS011;9199;48.832;9.182;2023-06-10T08:24:39;7.15;;;5.13;;
18146;SDS011;9199;48.832;9.182;2023-06-10T08:27:06;7.27;;;5.00;;
18146;SDS011;9199;48.832;9.182;2023-06-10T08:29:34;8.00;;;4.88;;
18146;SDS011;9199;48.832;9.182;2023-06-10T08:32:01;7.35;;;4.50;;
18146;SDS011;9199;48.832;9.182;2023-06-10T08:34:29;6.20;;;4.50;;
18146;SDS011;9199;48.832;9.182;2023-06-10T08:36:56;5.82;;;4.68;;
18146;SDS011;9199;48.832;9.182;2023-06-10T08:39:22;6.77;;;5.10;;
18146;SDS011;9199;48.832;9.182;2023-06-10T08:41:50;7.03;;;4.90;;
18146;SDS011;9199;48.832;9.182;2023-06-10T08:44:26;6.30;;;4.63;;
18146;SDS011;9199;48.832;9.182;2023-06-10T08:46:57;8.38;;;4.60;;
18146;SDS011;9199;48.832;9.182;2023-06-10T08:49:26;6.65;;;4.57;;
18146;SDS011;9199;48.832;9.182;2023-06-10T08:51:58;6.20;;;4.50;;
18146;SDS011;9199;48.832;9.182;2023-06-10T08:54:27;6.15;;;4.95;;
18146;SDS011;9199;48.832;9.182;2023-06-10T08:56:57;5.93;;;4.80;;
18146;SDS011;9199;48.832;9.182;2023-06-10T08:59:25;5.88;;;4.40;;
18146;SDS011;9199;48.832;9.182;2023-06-10T09:01:52;8.30;;;5.30;;
18146;SDS011;9199;48.832;9.182;2023-06-10T09:04:21;7.87;;;4.97;;
18146;SDS011;9199;48.832;9.182;2023-06-10T09:06:50;7.25;;;4.65;;
18146;SDS011;9199;48.832;9.182;2023-06-10T09:09:18;5.65;;;4.25;;
18146;SDS011;9199;48.832;9.182;2023-06-10T09:11:45;7.25;;;4.72;;
18146;SDS011;9199;48.832;9.182;2023-06-10T09:14:12;6.63;;;4.55;;
18146;SDS011;9199;48.832;9.182;2023-06-10T09:16:39;6.03;;;4.40;;
18146;SDS011;9199;48.832;9.182;2023-06-10T09:19:07;6.90;;;4.50;;
18146;SDS011;9199;48.832;9.182;2023-06-10T09:21:35;5.50;;;4.20;;
18146;SDS011;9199;48.832;9.182;2023-06-10T09:24:02;5.00;;;3.90;;
18146;SDS011;9199;48.832;9.182;2023-06-10T09:26:29;6.07;;;4.28;;
18146;SDS011;9199;48.832;9.182;2023-06-10T09:28:57;6.20;;;4.43;;
18146;SDS011;9199;48.832;9.182;2023-06-10T09:31:29;5.90;;;4.30;;
18146;SDS011;9199;48.832;9.182;2023-06-10T09:34:04;5.13;;;4.00;;
18146;SDS011;9199;48.832;9.182;2023-06-10T09:36:32;5.95;;;4.07;;
18146;SDS011;9199;48.832;9.182;2023-06-10T09:39:00;5.47;;;4.05;;
18146;SDS011;9199;48.832;9.182;2023-06-10T09:41:31;6.03;;;4.10;;
18146;SDS011;9199;48.832;9.182;2023-06-10T09:43:59;6.95;;;4.50;;
18146;SDS011;9199;48.832;9.182;2023-06-10T09:46:25;6.32;;;4.20;;
18146;SDS011;9199;48.832;9.182;2023-06-10T09:48:57;5.70;;;4.35;;
18146;SDS011;9199;48.832;9.182;2023-06-10T09:51:24;6.00;;;4.13;;
18146;SDS011;9199;48.832;9.182;2023-06-10T09:53:51;5.40;;;3.90;;
18146;SDS011;9199;48.832;9.182;2023-06-10T09:56:20;6.43;;;4.18;;
18146;SDS011;9199;48.832;9.182;2023-06-10T09:58:49;6.78;;;4.20;;
18146;SDS011;9199;48.832;9.182;2023-06-10T10:01:19;5.75;;;4.45;;
18146;SDS011;9199;48.832;9.182;2023-06-10T10:03:46;5.63;;;4.22;;
18146;SDS011;9199;48.832;9.182;2023-06-10T10:06:14;5.90;;;4.23;;
18146;SDS011;9199;48.832;9.182;2023-06-10T10:08:41;6.25;;;4.43;;
18146;SDS011;9199;48.832;9.182;2023-06-10T10:11:08;5.95;;;4.20;;
18146;SDS011;9199;48.832;9.182;2023-06-10T10:13:37;5.25;;;4.10;;
18146;SDS011;9199;48.832;9.182;2023-06-10T10:16:06;5.43;;;4.40;;
18146;SDS011;9199;48.832;9.182;2023-06-10T10:18:38;6.10;;;4.43;;
18146;SDS011;9199;48.832;9.182;2023-06-10T10:21:09;5.60;;;4.13;;
18146;SDS011;9199;48.832;9.182;2023-06-10T10:23:39;5.55;;;3.90;;
18146;SDS011;9199;48.832;9.182;2023-06-10T10:26:10;5.82;;;4.03;;
18146;SDS011;9199;48.832;9.182;2023-06-10T10:28:41;5.65;;;4.03;;
18146;SDS011;9199;48.832;9.182;2023-06-10T10:31:15;5.83;;;4.20;;
18146;SDS011;9199;48.832;9.182;2023-06-10T10:33:46;6.13;;;4.32;;
18146;SDS011;9199;48.832;9.182;2023-06-10T10:36:21;5.40;;;4.13;;
18146;SDS011;9199;48.832;9.182;2023-06-10T10:38:48;6.47;;;4.13;;
18146;SDS011;9199;48.832;9.182;2023-06-10T10:41:15;6.78;;;4.40;;
18146;SDS011;9199;48.832;9.182;2023-06-10T10:43:44;6.60;;;4.40;;
18146;SDS011;9199;48.832;9.182;2023-06-10T10:46:12;6.68;;;4.13;;
18146;SDS011;9199;48.832;9.182;2023-06-10T10:48:40;5.80;;;4.22;;
18146;SDS011;9199;48.832;9.182;2023-06-10T10:51:08;6.85;;;4.07;;
18146;SDS011;9199;48.832;9.182;2023-06-10T10:53:36;5.78;;;4.38;;
18146;SDS011;9199;48.832;9.182;2023-06-10T10:56:06;5.83;;;3.83;;
18146;SDS011;9199;48.832;9.182;2023-06-10T10:58:33;5.90;;;4.10;;
18146;SDS011;9199;48.832;9.182;2023-06-10T11:01:10;6.40;;;4.30;;
18146;SDS011;9199;48.832;9.182;2023-06-10T11:03:42;5.55;;;3.85;;
18146;SDS011;9199;48.832;9.182;2023-06-10T11:06:11;5.18;;;3.67;;
18146;SDS011;9199;48.832;9.182;2023-06-10T11:08:46;5.57;;;3.87;;
18146;SDS011;9199;48.832;9.182;2023-06-10T11:11:18;4.82;;;3.75;;
18146;SDS011;9199;48.832;9.182;2023-06-10T11:13:57;5.47;;;4.32;;
18146;SDS011;9199;48.832;9.182;2023-06-10T11:16:28;5.75;;;4.25;;
18146;SDS011;9199;48.832;9.182;2023-06-10T11:18:55;5.30;;;3.70;;
18146;SDS011;9199;48.832;9.182;2023-06-10T11:21:23;6.37;;;3.80;;
18146;SDS011;9199;48.832;9.182;2023-06-10T11:23:50;5.10;;;4.03;;
18146;SDS011;9199;48.832;9.182;2023-06-10T11:26:21;5.53;;;4.03;;
18146;SDS011;9199;48.832;9.182;2023-06-10T11:29:08;5.07;;;3.85;;
18146;SDS011;9199;48.832;9.182;2023-06-10T11:31:40;5.20;;;3.78;;
18146;SDS011;9199;48.832;9.182;2023-06-10T11:34:08;5.40;;;3.97;;
18146;SDS011;9199;48.832;9.182;2023-06-10T11:36:36;6.43;;;3.65;;
18146;SDS011;9199;48.832;9.182;2023-06-10T11:39:07;5.05;;;4.03;;
18146;SDS011;9199;48.832;9.182;2023-06-10T11:41:35;5.38;;;3.70;;
18146;SDS011;9199;48.832;9.182;2023-06-10T11:44:03;5.00;;;3.78;;
18146;SDS011;9199;48.832;9.182;2023-06-10T11:46:33;5.03;;;4.00;;
18146;SDS011;9199;48.832;9.182;2023-06-10T11:49:02;5.93;;;3.80;;
18146;SDS011;9199;48.832;9.182;2023-06-10T11:51:32;5.80;;;3.53;;
18146;SDS011;9199;48.832;9.182;2023-06-10T11:54:00;4.63;;;3.60;;
18146;SDS011;9199;48.832;9.182;2023-06-10T11:56:27;5.72;;;3.67;;
18146;SDS011;9199;48.832;9.182;2023-06-10T11:58:55;5.53;;;3.87;;
18146;SDS011;9199;48.832;9.182;2023-06-10T12:01:23;4.72;;;3.42;;
18146;SDS011;9199;48.832;9.182;2023-06-10T12:03:58;6.32;;;3.95;;
18146;SDS011;9199;48.832;9.182;2023-06-10T12:06:42;7.32;;;3.80;;
18146;SDS011;9199;48.832;9.182;2023-06-10T12:09:14;5.35;;;3.85;;
18146;SDS011;9199;48.832;9.182;2023-06-10T12:11:43;5.70;;;3.80;;
18146;SDS011;9199;48.832;9.182;2023-06-10T12:14:10;5.13;;;3.60;;
18146;SDS011;9199;48.832;9.182;2023-06-10T12:16:37;5.55;;;3.90;;
18146;SDS011;9199;48.832;9.182;2023-06-10T12:19:05;4.80;;;3.70;;
18146;SDS011;9199;48.832;9.182;2023-06-10T12:21:33;5.30;;;4.07;;
18146;SDS011;9199;48.832;9.182;2023-06-10T12:24:07;6.40;;;4.00;;
18146;SDS011;9199;48.832;9.182;2023-06-10T12:26:35;4.80;;;3.75;;
18146;SDS011;9199;48.832;9.182;2023-06-10T12:29:12;5.63;;;3.80;;
18146;SDS011;9199;48.832;9.182;2023-06-10T12:31:52;7.78;;;3.97;;
18146;SDS011;9199;48.832;9.182;2023-06-10T12:34:21;4.75;;;3.45;;
18146;SDS011;9199;48.832;9.182;2023-06-10T12:36:54;7.00;;;3.70;;
18146;SDS011;9199;48.832;9.182;2023-06-10T12:39:21;6.85;;;3.75;;
18146;SDS011;9199;48.832;9.182;2023-06-10T12:41:48;5.75;;;3.88;;
18146;SDS011;9199;48.832;9.182;2023-06-10T12:44:15;7.47;;;4.28;;
18146;SDS011;9199;48.832;9.182;2023-06-10T12:46:41;6.57;;;3.80;;
18146;SDS011;9199;48.832;9.182;2023-06-10T12:49:08;6.17;;;3.73;;
18146;SDS011;9199;48.832;9.182;2023-06-10T12:51:47;5.38;;;3.75;;
18146;SDS011;9199;48.832;9.182;2023-06-10T12:54:14;5.97;;;3.60;;
18146;SDS011;9199;48.832;9.182;2023-06-10T12:56:41;4.88;;;3.47;;
18146;SDS011;9199;48.832;9.182;2023-06-10T12:59:07;5.22;;;3.58;;
18146;SDS011;9199;48.832;9.182;2023-06-10T13:01:34;5.00;;;3.40;;
18146;SDS011;9199;48.832;9.182;2023-06-10T13:04:01;4.45;;;3.20;;
18146;SDS011;9199;48.832;9.182;2023-06-10T13:06:27;7.10;;;3.90;;
18146;SDS011;9199;48.832;9.182;2023-06-10T13:08:55;5.95;;;3.85;;
18146;SDS011;9199;48.832;9.182;2023-06-10T13:11:22;5.78;;;3.83;;
18146;SDS011;9199;48.832;9.182;2023-06-10T13:13:50;5.10;;;3.50;;
18146;SDS011;9199;48.832;9.182;2023-06-10T13:16:17;5.88;;;3.70;;
18146;SDS011;9199;48.832;9.182;2023-06-10T13:18:44;4.72;;;3.50;;
18146;SDS011;9199;48.832;9.182;2023-06-10T13:21:11;5.03;;;3.40;;
18146;SDS011;9199;48.832;9.182;2023-06-10T13:23:37;4.63;;;3.55;;
18146;SDS011;9199;48.832;9.182;2023-06-10T13:26:05;5.03;;;3.33;;
18146;SDS011;9199;48.832;9.182;2023-06-10T13:28:32;4.50;;;3.15;;
18146;SDS011;9199;48.832;9.182;2023-06-10T13:30:59;4.82;;;3.38;;
18146;SDS011;9199;48.832;9.182;2023-06-10T13:33:25;5.90;;;3.30;;
18146;SDS011;9199;48.832;9.182;2023-06-10T13:35:52;5.22;;;3.50;;
18146;SDS011;9199;48.832;9.182;2023-06-10T13:38:19;4.40;;;3.33;;
18146;SDS011;9199;48.832;9.182;2023-06-10T13:40:45;4.55;;;3.22;;
18146;SDS011;9199;48.832;9.182;2023-06-10T13:43:13;4.45;;;3.35;;
18146;SDS011;9199;48.832;9.182;2023-06-10T13:45:40;5.47;;;3.30;;
18146;SDS011;9199;48.832;9.182;2023-06-10T13:48:07;5.07;;;3.55;;
18146;SDS011;9199;48.832;9.182;2023-06-10T13:50:34;5.00;;;3.43;;
18146;SDS011;9199;48.832;9.182;2023-06-10T13:53:01;5.75;;;3.97;;
18146;SDS011;9199;48.832;9.182;2023-06-10T13:55:27;4.60;;;3.53;;
18146;SDS011;9199;48.832;9.182;2023-06-10T13:57:54;4.57;;;3.42;;
18146;SDS011;9199;48.832;9.182;2023-06-10T14:00:22;5.53;;;3.40;;
18146;SDS011;9199;48.832;9.182;2023-06-10T14:02:50;6.10;;;3.77;;
18146;SDS011;9199;48.832;9.182;2023-06-10T14:05:16;5.20;;;3.60;;
18146;SDS011;9199;48.832;9.182;2023-06-10T14:07:43;5.82;;;3.25;;
18146;SDS011;9199;48.832;9.182;2023-06-10T14:10:10;5.55;;;3.60;;
18146;SDS011;9199;48.832;9.182;2023-06-10T14:12:37;4.97;;;3.35;;
18146;SDS011;9199;48.832;9.182;2023-06-10T14:15:04;4.80;;;3.40;;
18146;SDS011;9199;48.832;9.182;2023-06-10T14:17:33;5.22;;;3.67;;
18146;SDS011;9199;48.832;9.182;2023-06-10T14:19:59;4.15;;;3.28;;
18146;SDS011;9199;48.832;9.182;2023-06-10T14:22:26;5.85;;;3.83;;
18146;SDS011;9199;48.832;9.182;2023-06-10T14:24:53;5.05;;;3.63;;
18146;SDS011;9199;48.832;9.182;2023-06-10T14:27:19;5.23;;;3.40;;
18146;SDS011;9199;48.832;9.182;2023-06-10T14:29:46;4.70;;;3.70;;
18146;SDS011;9199;48.832;9.182;2023-06-10T14:32:13;5.53;;;3.95;;
18146;SDS011;9199;48.832;9.182;2023-06-10T14:34:40;4.80;;;3.88;;
18146;SDS011;9199;48.832;9.182;2023-06-10T14:37:09;4.78;;;3.92;;
18146;SDS011;9199;48.832;9.182;2023-06-10T14:39:36;5.17;;;3.67;;
18146;SDS011;9199;48.832;9.182;2023-06-10T14:42:03;4.78;;;3.78;;
18146;SDS011;9199;48.832;9.182;2023-06-10T14:44:30;5.10;;;3.83;;
18146;SDS011;9199;48.832;9.182;2023-06-10T14:46:57;5.20;;;3.60;;
18146;SDS011;9199;48.832;9.182;2023-06-10T14:49:23;6.45;;;3.90;;
18146;SDS011;9199;48.832;9.182;2023-06-10T14:51:52;5.47;;;4.07;;
18146;SDS011;9199;48.832;9.182;2023-06-10T14:54:18;5.80;;;3.60;;
18146;SDS011;9199;48.832;9.182;2023-06-10T14:56:45;6.35;;;4.03;;
18146;SDS011;9199;48.832;9.182;2023-06-10T14:59:12;5.22;;;3.90;;
18146;SDS011;9199;48.832;9.182;2023-06-10T15:01:38;5.88;;;4.30;;
18146;SDS011;9199;48.832;9.182;2023-06-10T15:04:05;5.40;;;3.77;;
18146;SDS011;9199;48.832;9.182;2023-06-10T15:06:32;5.95;;;3.63;;